Allotf 3 — CNA4504 — position and weather

sailwx.info

Track history (hours):
 
Tides and Currents Weather Stations Pressure Air Temp Water Temp Dewpoint Dewpoint Depression Visibility Wind Speed Wind Dir Waves Ship Positions

Allotf 3

Last reported at 2017-Nov-10 17:17 UTC. Time now 2017-Nov-23 17:05 UTC.
Position N 24°27' W 015°34'.
Warning: this ship's position is 12 days out of date.

Length 47 m.

Type: Fishing. MMSI: 242926000.

Date/timePositionNaut miles runAvg speedWind from/ knotsBaromVisibWave heightAir tempDewpointWater temp
2017-Nov-10 17:17N 24°27' W 015°34'410.8
2017-Nov-10 16:54N 24°24' W 015°38'1010.9
2017-Nov-10 15:58N 24°16' W 015°45'511.0
2017-Nov-10 15:30N 24°11' W 015°47'710.9
2017-Nov-10 14:53N 24°05' W 015°51'511.0
2017-Nov-10 14:24N 24°01' W 015°54'511.0
2017-Nov-10 13:58N 23°56' W 015°56'710.8
2017-Nov-10 13:21N 23°50' W 015°58'410.8
2017-Nov-10 12:59N 23°46' W 015°59'  
Track history (hours):
 
Tides and Currents Weather Stations Pressure Air Temp Water Temp Dewpoint Dewpoint Depression Visibility Wind Speed Wind Dir Waves Ship Positions

Allotf 3

Last reported at 2017-Nov-10 17:17 UTC. Time now 2017-Nov-23 17:05 UTC.
Position N 24°27' W 015°34'.
Warning: this ship's position is 12 days out of date.

Length 47 m.

Type: Fishing. MMSI: 242926000.

Date/timePositionNaut miles runAvg speedWind from/ knotsBaromVisibWave heightAir tempDewpointWater temp
2017-Nov-10 17:17N 24°27' W 015°34'410.8
2017-Nov-10 16:54N 24°24' W 015°38'1010.9
2017-Nov-10 15:58N 24°16' W 015°45'511.0
2017-Nov-10 15:30N 24°11' W 015°47'710.9
2017-Nov-10 14:53N 24°05' W 015°51'511.0
2017-Nov-10 14:24N 24°01' W 015°54'511.0
2017-Nov-10 13:58N 23°56' W 015°56'710.8
2017-Nov-10 13:21N 23°50' W 015°58'410.8
2017-Nov-10 12:59N 23°46' W 015°59'  

Dump ship's entire track history